createdAt,value
2023-02-03T00:02:03.408Z,2.22
2023-02-03T00:04:30.256Z,2.30
2023-02-03T00:06:57.258Z,1.60
2023-02-03T00:09:24.254Z,1.65
2023-02-03T00:11:51.179Z,2.10
2023-02-03T00:14:17.960Z,1.92
2023-02-03T00:16:44.813Z,2.00
2023-02-03T00:19:11.667Z,1.90
2023-02-03T00:21:38.487Z,1.85
2023-02-03T00:24:05.561Z,1.58
2023-02-03T00:26:32.447Z,1.60
2023-02-03T00:29:00.728Z,1.75
2023-02-03T00:31:27.694Z,2.13
2023-02-03T00:33:58.290Z,1.60
2023-02-03T00:36:26.134Z,1.70
2023-02-03T00:38:53.443Z,2.30
2023-02-03T00:41:21.393Z,1.80
2023-02-03T00:43:48.829Z,2.05
2023-02-03T00:46:16.397Z,1.90
2023-02-03T00:48:43.235Z,1.85
2023-02-03T00:51:10.116Z,1.85
2023-02-03T00:53:36.893Z,2.03
2023-02-03T00:56:04.174Z,1.80
2023-02-03T00:58:31.243Z,1.90
2023-02-03T01:00:58.178Z,1.70
2023-02-03T01:03:25.481Z,1.92
2023-02-03T01:05:52.578Z,1.77
2023-02-03T01:08:20.271Z,1.80
2023-02-03T01:10:47.112Z,1.80
2023-02-03T01:13:13.884Z,1.67
2023-02-03T01:15:48.240Z,1.75
2023-02-03T01:20:44.256Z,1.58
2023-02-03T01:23:11.020Z,1.92
2023-02-03T01:25:37.815Z,1.88
2023-02-03T01:28:06.071Z,1.83
2023-02-03T01:30:33.343Z,1.80
2023-02-03T01:33:00.266Z,1.50
2023-02-03T01:35:27.188Z,1.83
2023-02-03T01:37:54.247Z,1.77
2023-02-03T01:40:21.149Z,1.92
2023-02-03T01:42:47.934Z,1.70
2023-02-03T01:45:14.903Z,1.65
2023-02-03T01:47:52.502Z,1.35
2023-02-03T01:50:25.201Z,1.60
2023-02-03T01:52:59.707Z,1.70
2023-02-03T01:58:02.835Z,1.40
2023-02-03T02:00:29.917Z,1.50
2023-02-03T02:03:00.758Z,1.48
2023-02-03T02:05:58.831Z,1.60
2023-02-03T02:08:25.998Z,1.27
2023-02-03T02:10:53.476Z,1.50
2023-02-03T02:13:21.018Z,1.70
2023-02-03T02:16:15.821Z,1.13
2023-02-03T02:19:16.877Z,1.50
2023-02-03T02:22:06.473Z,1.27
2023-02-03T02:24:33.257Z,1.10
2023-02-03T02:27:18.301Z,1.05
2023-02-03T02:30:20.069Z,1.15
2023-02-03T02:33:05.540Z,1.17
2023-02-03T02:35:50.789Z,1.20
2023-02-03T02:38:45.969Z,1.13
2023-02-03T02:41:21.104Z,1.30
2023-02-03T02:44:01.603Z,1.17
2023-02-03T02:46:36.192Z,1.00
2023-02-03T02:49:13.177Z,1.13
2023-02-03T02:51:43.903Z,1.20
2023-02-03T02:54:17.762Z,1.20
2023-02-03T02:56:48.385Z,1.10
2023-02-03T02:59:15.601Z,1.25
2023-02-03T03:01:42.481Z,1.10
2023-02-03T03:04:13.355Z,0.93
2023-02-03T03:06:52.897Z,0.82
2023-02-03T03:09:24.623Z,1.00
2023-02-03T03:12:08.494Z,1.02
2023-02-03T03:14:39.342Z,0.93
2023-02-03T03:17:09.901Z,1.10
2023-02-03T03:19:41.736Z,1.02
2023-02-03T03:22:13.278Z,1.00
2023-02-03T03:24:50.574Z,0.73
2023-02-03T03:27:22.870Z,0.98
2023-02-03T03:30:03.115Z,0.88
2023-02-03T03:32:33.026Z,1.00
2023-02-03T03:35:01.694Z,0.73
2023-02-03T03:37:43.374Z,0.73
2023-02-03T03:40:17.148Z,0.93
2023-02-03T03:42:57.277Z,0.77
2023-02-03T03:45:28.606Z,0.70
2023-02-03T03:48:14.089Z,0.70
2023-02-03T03:50:48.041Z,0.60
2023-02-03T03:53:17.138Z,0.70
2023-02-03T03:55:49.668Z,0.70
2023-02-03T03:58:21.415Z,0.77
2023-02-03T04:00:49.460Z,0.57
2023-02-03T04:03:21.974Z,0.90
2023-02-03T04:05:49.099Z,0.60
2023-02-03T04:08:16.114Z,0.75
2023-02-03T04:10:43.795Z,0.60
2023-02-03T04:13:11.898Z,0.90
2023-02-03T04:15:38.985Z,0.90
2023-02-03T04:18:06.157Z,0.77
2023-02-03T04:20:33.404Z,0.60
2023-02-03T04:23:00.527Z,0.70
2023-02-03T04:25:27.470Z,0.70
2023-02-03T04:27:55.162Z,0.52
2023-02-03T04:30:22.370Z,0.70
2023-02-03T04:32:49.219Z,0.70
2023-02-03T04:35:16.032Z,0.85
2023-02-03T04:37:43.052Z,0.70
2023-02-03T04:40:10.553Z,0.70
2023-02-03T04:42:38.942Z,0.60
2023-02-03T04:45:08.002Z,0.77
2023-02-03T04:47:35.096Z,0.60
2023-02-03T04:50:02.261Z,0.70
2023-02-03T04:52:29.149Z,0.93
2023-02-03T04:54:55.921Z,0.80
2023-02-03T04:57:22.764Z,0.82
2023-02-03T04:59:49.547Z,0.80
2023-02-03T05:02:16.409Z,0.70
2023-02-03T05:04:43.158Z,0.90
2023-02-03T05:07:10.289Z,0.65
2023-02-03T05:09:37.065Z,0.90
2023-02-03T05:12:04.074Z,0.93
2023-02-03T05:14:31.096Z,0.77
2023-02-03T05:16:57.858Z,0.73
2023-02-03T05:19:24.718Z,0.80
2023-02-03T05:21:51.528Z,0.70
2023-02-03T05:24:18.347Z,1.20
2023-02-03T05:26:45.223Z,1.20
2023-02-03T05:29:12.082Z,1.20
2023-02-03T05:31:39.046Z,0.80
2023-02-03T05:34:05.863Z,0.80
2023-02-03T05:36:32.683Z,1.23
2023-02-03T05:38:59.457Z,1.10
2023-02-03T05:41:44.731Z,1.05
2023-02-03T05:44:11.926Z,1.08
2023-02-03T05:46:38.721Z,1.40
2023-02-03T05:49:05.552Z,1.30
2023-02-03T05:51:32.400Z,1.10
2023-02-03T05:53:59.249Z,1.17
2023-02-03T05:56:26.498Z,1.30
2023-02-03T05:58:53.626Z,1.25
2023-02-03T06:01:20.583Z,1.70
2023-02-03T06:03:48.599Z,1.52
2023-02-03T06:06:16.460Z,1.60
2023-02-03T06:08:44.049Z,1.13
2023-02-03T06:11:11.639Z,1.30
2023-02-03T06:13:38.708Z,1.30
2023-02-03T06:16:05.856Z,1.13
2023-02-03T06:18:32.767Z,1.33
2023-02-03T06:20:59.583Z,1.50
2023-02-03T06:23:26.372Z,1.20
2023-02-03T06:25:53.265Z,1.55
2023-02-03T06:28:20.232Z,1.48
2023-02-03T06:30:50.575Z,1.35
2023-02-03T06:33:17.398Z,1.45
2023-02-03T06:35:44.167Z,1.33
2023-02-03T06:38:11.240Z,1.58
2023-02-03T06:40:38.043Z,1.40
2023-02-03T06:43:04.931Z,1.88
2023-02-03T06:45:31.696Z,1.52
2023-02-03T06:47:58.461Z,1.48
2023-02-03T06:50:25.534Z,1.60
2023-02-03T06:52:52.531Z,1.50
2023-02-03T06:55:19.383Z,1.35
2023-02-03T06:57:47.629Z,1.55
2023-02-03T07:00:18.791Z,1.50
2023-02-03T07:02:46.619Z,1.70
2023-02-03T07:05:13.569Z,1.30
2023-02-03T07:07:40.411Z,1.63
2023-02-03T07:10:07.919Z,1.60
2023-02-03T07:12:36.596Z,1.52
2023-02-03T07:15:04.830Z,1.50
2023-02-03T07:17:32.134Z,1.50
2023-02-03T07:19:59.233Z,1.42
2023-02-03T07:22:26.062Z,1.30
2023-02-03T07:24:52.829Z,1.40
2023-02-03T07:27:20.349Z,1.40
2023-02-03T07:29:47.138Z,1.58
2023-02-03T07:32:14.490Z,1.45
2023-02-03T07:34:41.535Z,1.40
2023-02-03T07:37:08.556Z,1.55
2023-02-03T07:39:35.351Z,1.30
2023-02-03T07:42:02.140Z,1.30
2023-02-03T07:44:30.030Z,1.30
2023-02-03T07:46:56.987Z,1.30
2023-02-03T07:49:23.787Z,1.40
2023-02-03T07:51:50.562Z,1.05
2023-02-03T07:54:17.433Z,1.20
2023-02-03T07:56:44.350Z,1.42
2023-02-03T07:59:11.104Z,1.15
2023-02-03T08:01:38.118Z,1.33
2023-02-03T08:04:05.647Z,1.20
2023-02-03T08:06:33.005Z,1.20
2023-02-03T08:08:59.925Z,1.00
2023-02-03T08:11:27.201Z,1.10
2023-02-03T08:13:54.203Z,1.08
2023-02-03T08:16:21.211Z,1.20
2023-02-03T08:18:48.021Z,1.17
2023-02-03T08:21:14.935Z,1.00
2023-02-03T08:23:41.724Z,1.20
2023-02-03T08:26:08.569Z,1.05
2023-02-03T08:28:35.378Z,1.20
2023-02-03T08:31:02.285Z,0.85
2023-02-03T08:33:29.263Z,1.38
2023-02-03T08:35:56.968Z,1.15
2023-02-03T08:38:23.749Z,1.15
2023-02-03T08:40:50.686Z,1.10
2023-02-03T08:43:17.657Z,1.00
2023-02-03T08:45:44.468Z,1.00
2023-02-03T08:48:11.743Z,1.00
2023-02-03T08:50:41.914Z,1.00
2023-02-03T08:53:09.077Z,0.90
2023-02-03T08:55:39.508Z,1.15
2023-02-03T08:58:06.296Z,1.15
2023-02-03T09:00:33.080Z,1.08
2023-02-03T09:02:59.829Z,0.80
2023-02-03T09:05:26.635Z,1.00
2023-02-03T09:07:53.406Z,1.10
2023-02-03T09:10:20.249Z,1.13
2023-02-03T09:12:46.994Z,1.17
2023-02-03T09:15:13.830Z,1.02
2023-02-03T09:17:40.662Z,1.00
2023-02-03T09:20:09.040Z,0.75
2023-02-03T09:22:35.851Z,0.80
2023-02-03T09:25:02.845Z,1.10
2023-02-03T09:27:29.595Z,0.65
2023-02-03T09:29:58.481Z,0.80
2023-02-03T09:32:25.386Z,0.93
2023-02-03T09:34:52.138Z,1.10
2023-02-03T09:37:19.281Z,1.05
2023-02-03T09:39:46.083Z,1.10
2023-02-03T09:42:37.015Z,1.00
2023-02-03T09:45:03.753Z,0.80
2023-02-03T09:47:36.539Z,0.80
2023-02-03T09:50:07.355Z,1.00
2023-02-03T09:52:41.794Z,0.98
2023-02-03T09:58:00.849Z,1.02
2023-02-03T10:00:35.688Z,0.90
2023-02-03T10:03:27.450Z,0.88
2023-02-03T10:06:06.696Z,0.70
2023-02-03T10:09:02.423Z,0.90
2023-02-03T10:11:44.175Z,1.10
2023-02-03T10:14:38.884Z,1.20
2023-02-03T10:17:21.692Z,1.10
2023-02-03T10:19:55.459Z,0.85
2023-02-03T10:22:28.090Z,0.85
2023-02-03T10:25:20.729Z,1.00
2023-02-03T10:27:48.865Z,1.10
2023-02-03T10:30:32.353Z,0.90
2023-02-03T10:33:11.521Z,0.80
2023-02-03T10:35:53.132Z,0.88
2023-02-03T10:38:41.331Z,0.80
2023-02-03T10:41:08.333Z,1.05
2023-02-03T10:43:48.148Z,0.90
2023-02-03T10:46:15.915Z,0.80
2023-02-03T10:48:43.061Z,0.90
2023-02-03T10:51:25.516Z,0.70
2023-02-03T10:53:53.471Z,0.90
2023-02-03T10:56:26.887Z,0.80
2023-02-03T10:58:56.855Z,0.82
2023-02-03T11:01:41.333Z,0.75
2023-02-03T11:04:32.541Z,0.80
2023-02-03T11:07:02.037Z,0.60
2023-02-03T11:09:33.692Z,0.70
2023-02-03T11:12:09.586Z,0.60
2023-02-03T11:14:38.921Z,0.70
2023-02-03T11:17:08.585Z,0.65
2023-02-03T11:19:38.811Z,0.68
2023-02-03T11:22:06.628Z,0.77
2023-02-03T11:24:39.417Z,0.60
2023-02-03T11:27:16.554Z,0.57
2023-02-03T11:29:46.270Z,0.60
2023-02-03T11:32:41.674Z,0.80
2023-02-03T11:35:24.534Z,0.70
2023-02-03T11:37:54.713Z,0.73
2023-02-03T11:40:21.438Z,1.20
2023-02-03T11:42:51.244Z,1.30
2023-02-03T11:45:18.144Z,1.10
2023-02-03T11:47:55.880Z,0.63
2023-02-03T11:51:04.174Z,0.57
2023-02-03T11:53:56.650Z,0.55
2023-02-03T11:56:32.388Z,0.70
2023-02-03T11:58:59.122Z,0.63
2023-02-03T12:02:04.456Z,0.50
2023-02-03T12:04:43.314Z,0.60
2023-02-03T12:07:34.889Z,0.45
2023-02-03T12:10:19.642Z,0.40
2023-02-03T12:15:46.868Z,0.45
2023-02-03T12:18:35.448Z,0.45
2023-02-03T12:21:35.305Z,0.45
2023-02-03T12:24:16.958Z,0.40
2023-02-03T12:27:22.161Z,0.50
2023-02-03T12:29:58.430Z,0.20
2023-02-03T12:32:40.426Z,0.50
2023-02-03T12:35:34.781Z,0.40
2023-02-03T12:38:16.928Z,0.70
2023-02-03T12:40:49.425Z,0.50
2023-02-03T12:43:29.922Z,0.50
2023-02-03T12:46:06.017Z,0.50
2023-02-03T12:48:47.461Z,0.50
2023-02-03T12:51:31.189Z,0.60
2023-02-03T12:54:07.161Z,0.57
2023-02-03T12:56:44.550Z,0.45
2023-02-03T12:59:19.858Z,0.50
2023-02-03T13:01:58.569Z,0.65
2023-02-03T13:04:49.319Z,0.40
2023-02-03T13:07:27.565Z,0.40
2023-02-03T13:10:06.218Z,0.40
2023-02-03T13:12:44.870Z,0.50
2023-02-03T13:15:26.814Z,0.40
2023-02-03T13:18:04.011Z,0.40
2023-02-03T13:20:36.120Z,0.40
2023-02-03T13:23:22.147Z,0.40
2023-02-03T13:26:04.940Z,0.32
2023-02-03T13:28:43.358Z,0.10
2023-02-03T13:31:21.978Z,0.30
2023-02-03T13:34:16.025Z,0.40
2023-02-03T13:37:01.148Z,1.10
2023-02-03T13:39:52.977Z,0.20
2023-02-03T13:42:23.084Z,0.40
2023-02-03T13:45:22.517Z,0.38
2023-02-03T13:47:53.780Z,0.30
2023-02-03T13:50:30.502Z,0.40
2023-02-03T13:53:01.825Z,0.32
2023-02-03T13:55:30.984Z,0.30
2023-02-03T13:57:58.384Z,0.22
2023-02-03T14:00:43.692Z,0.30
2023-02-03T14:03:24.384Z,0.20
2023-02-03T14:06:01.671Z,0.30
2023-02-03T14:08:28.520Z,0.28
2023-02-03T14:11:33.112Z,0.30
2023-02-03T14:14:22.646Z,0.30
2023-02-03T14:16:53.285Z,0.47
2023-02-03T14:19:30.431Z,0.30
2023-02-03T14:22:03.295Z,0.30
2023-02-03T14:24:37.420Z,0.40
2023-02-03T14:27:16.224Z,0.43
2023-02-03T14:29:43.379Z,0.40
2023-02-03T14:32:11.615Z,0.30
2023-02-03T14:34:46.882Z,0.30
2023-02-03T14:37:27.545Z,0.30
2023-02-03T14:40:13.773Z,0.30
2023-02-03T14:43:14.594Z,0.25
2023-02-03T14:46:26.393Z,0.30
2023-02-03T14:49:05.972Z,0.28
2023-02-03T14:52:01.697Z,0.25
2023-02-03T14:55:10.065Z,0.57
2023-02-03T14:57:43.804Z,0.22
2023-02-03T15:00:20.108Z,0.20
2023-02-03T15:03:25.313Z,0.30
2023-02-03T15:05:58.812Z,0.20
2023-02-03T15:08:35.843Z,0.40
2023-02-03T15:11:26.964Z,0.32
2023-02-03T15:13:56.042Z,0.22
2023-02-03T15:16:24.875Z,0.40
2023-02-03T15:19:00.804Z,0.50
2023-02-03T15:21:27.603Z,0.40
2023-02-03T15:23:54.832Z,0.40
2023-02-03T15:26:26.459Z,0.40
2023-02-03T15:29:04.416Z,0.30
2023-02-03T15:31:34.451Z,0.55
2023-02-03T15:34:07.913Z,0.43
2023-02-03T15:36:45.798Z,0.50
2023-02-03T15:39:47.989Z,0.40
2023-02-03T15:42:53.696Z,0.30
2023-02-03T15:45:37.501Z,0.32
2023-02-03T15:48:36.825Z,0.30
2023-02-03T15:51:16.459Z,0.30
2023-02-03T15:54:18.984Z,0.40
2023-02-03T15:57:02.159Z,0.30
2023-02-03T15:59:35.475Z,0.50
2023-02-03T16:02:17.559Z,0.38
2023-02-03T16:04:45.022Z,0.40
2023-02-03T16:07:22.919Z,0.40
2023-02-03T16:09:54.285Z,0.30
2023-02-03T16:12:26.532Z,0.52
2023-02-03T16:14:55.283Z,0.40
2023-02-03T16:17:33.024Z,0.30
2023-02-03T16:20:12.142Z,0.40
2023-02-03T16:22:41.194Z,0.60
2023-02-03T16:25:22.333Z,0.50
2023-02-03T16:28:25.399Z,0.70
2023-02-03T16:31:12.803Z,0.68
2023-02-03T16:33:58.449Z,0.60
2023-02-03T16:36:43.706Z,0.40
2023-02-03T16:39:30.898Z,0.52
2023-02-03T16:42:19.030Z,0.70
2023-02-03T16:45:04.888Z,0.50
2023-02-03T16:47:51.126Z,0.50
2023-02-03T16:50:40.575Z,0.65
2023-02-03T16:53:15.541Z,0.50
2023-02-03T16:55:43.482Z,0.40
2023-02-03T16:58:12.487Z,0.60
2023-02-03T17:00:44.111Z,0.60
2023-02-03T17:03:13.582Z,0.52
2023-02-03T17:05:42.954Z,0.50
2023-02-03T17:08:10.193Z,0.50
2023-02-03T17:10:38.693Z,0.60
2023-02-03T17:13:05.898Z,0.60
2023-02-03T17:15:32.825Z,0.50
2023-02-03T17:17:59.721Z,0.70
2023-02-03T17:20:26.848Z,0.73
2023-02-03T17:22:54.675Z,0.52
2023-02-03T17:25:21.977Z,0.50
2023-02-03T17:27:48.878Z,0.35
2023-02-03T17:30:16.063Z,0.40
2023-02-03T17:32:42.926Z,0.35
2023-02-03T17:35:09.710Z,0.50
2023-02-03T17:37:36.537Z,0.47
2023-02-03T17:53:56.774Z,0.40
2023-02-03T17:56:25.272Z,0.47
2023-02-03T17:58:56.437Z,0.60
2023-02-03T18:01:25.182Z,0.70
2023-02-03T18:03:55.457Z,0.68
2023-02-03T18:06:23.918Z,0.70
2023-02-03T18:08:51.240Z,0.50
2023-02-03T18:11:19.664Z,0.80
2023-02-03T18:13:48.613Z,0.70
2023-02-03T18:16:20.002Z,0.60
2023-02-03T18:18:46.837Z,0.60
2023-02-03T18:21:15.596Z,0.80
2023-02-03T18:23:42.834Z,0.50
2023-02-03T18:26:11.159Z,0.55
2023-02-03T18:28:39.300Z,0.60
2023-02-03T18:31:09.313Z,0.70
2023-02-03T18:33:37.306Z,0.60
2023-02-03T18:36:05.469Z,0.50
2023-02-03T18:38:34.032Z,0.68
2023-02-03T18:41:25.080Z,0.73
2023-02-03T18:43:52.041Z,0.68
2023-02-03T18:46:22.722Z,0.70
2023-02-03T18:48:50.409Z,0.65
2023-02-03T18:51:19.239Z,0.52
2023-02-03T18:53:49.167Z,0.75
2023-02-03T18:56:22.290Z,0.50
2023-02-03T18:58:49.717Z,0.60
2023-02-03T19:01:28.447Z,0.88
2023-02-03T19:03:57.225Z,0.80
2023-02-03T19:06:24.994Z,0.75
2023-02-03T19:08:52.227Z,0.90
2023-02-03T19:11:19.742Z,0.80
2023-02-03T19:13:46.851Z,1.08
2023-02-03T19:16:16.864Z,0.98
2023-02-03T19:18:47.381Z,0.98
2023-02-03T19:21:14.694Z,1.30
2023-02-03T19:23:42.944Z,1.10
2023-02-03T19:26:10.524Z,1.10
2023-02-03T19:28:37.865Z,1.30
2023-02-03T19:31:08.480Z,1.13
2023-02-03T19:33:36.551Z,1.48
2023-02-03T19:36:07.230Z,1.33
2023-02-03T19:38:34.760Z,2.50
2023-02-03T19:41:02.525Z,2.42
2023-02-03T19:43:32.460Z,2.20
2023-02-03T19:45:59.868Z,2.17
2023-02-03T19:48:26.730Z,2.40
2023-02-03T19:50:53.916Z,1.98
2023-02-03T19:53:21.634Z,1.75
2023-02-03T19:55:48.572Z,1.60
2023-02-03T19:58:15.777Z,1.25
2023-02-03T20:00:43.598Z,1.52
2023-02-03T20:03:10.590Z,1.30
2023-02-03T20:05:38.148Z,1.50
2023-02-03T20:08:05.984Z,1.40
2023-02-03T20:10:33.270Z,1.38
2023-02-03T20:13:00.689Z,1.70
2023-02-03T20:15:27.833Z,1.70
2023-02-03T20:17:58.309Z,1.90
2023-02-03T20:20:25.441Z,1.77
2023-02-03T20:22:52.262Z,1.55
2023-02-03T20:25:20.084Z,1.50
2023-02-03T20:27:47.299Z,1.50
2023-02-03T20:30:14.400Z,1.75
2023-02-03T20:32:41.628Z,1.60
2023-02-03T20:35:09.149Z,2.50
2023-02-03T20:37:36.375Z,3.15
2023-02-03T20:40:10.263Z,3.33
2023-02-03T20:42:37.142Z,2.40
2023-02-03T20:45:14.735Z,2.33
2023-02-03T20:47:42.109Z,1.92
2023-02-03T20:50:18.877Z,2.15
2023-02-03T20:52:51.104Z,1.73
2023-02-03T20:55:22.998Z,1.80
2023-02-03T20:57:54.261Z,1.65
2023-02-03T21:00:26.047Z,1.70
2023-02-03T21:03:12.193Z,1.35
2023-02-03T21:05:42.176Z,1.83
2023-02-03T21:08:17.324Z,3.03
2023-02-03T21:10:45.410Z,2.40
2023-02-03T21:13:27.746Z,2.20
2023-02-03T21:15:59.368Z,2.55
2023-02-03T21:18:37.029Z,2.15
2023-02-03T21:21:04.325Z,1.65
2023-02-03T21:23:44.690Z,1.80
2023-02-03T21:26:24.326Z,2.03
2023-02-03T21:28:57.655Z,2.17
2023-02-03T21:31:29.028Z,2.13
2023-02-03T21:33:58.057Z,2.47
2023-02-03T21:36:27.542Z,2.38
2023-02-03T21:38:57.494Z,2.22
2023-02-03T21:41:25.865Z,2.35
2023-02-03T21:43:57.077Z,2.10
2023-02-03T21:46:26.763Z,2.28
2023-02-03T21:49:02.236Z,2.20
2023-02-03T21:51:35.490Z,1.77
2023-02-03T21:54:15.867Z,2.22
2023-02-03T21:56:43.083Z,2.80
2023-02-03T21:59:17.612Z,2.25
2023-02-03T22:01:44.828Z,2.38
2023-02-03T22:04:11.655Z,1.98
2023-02-03T22:06:45.533Z,2.30
2023-02-03T22:09:14.821Z,2.13
2023-02-03T22:11:41.653Z,2.40
2023-02-03T22:14:08.691Z,2.05
2023-02-03T22:16:36.144Z,2.00
2023-02-03T22:19:03.043Z,1.88
2023-02-03T22:21:29.806Z,2.08
2023-02-03T22:23:57.200Z,2.15
2023-02-03T22:26:24.135Z,2.13
2023-02-03T22:28:50.996Z,1.85
2023-02-03T22:31:19.781Z,1.85
2023-02-03T22:33:47.167Z,1.80
2023-02-03T22:36:14.614Z,2.00
2023-02-03T22:38:42.574Z,1.90
2023-02-03T22:41:12.921Z,2.03
2023-02-03T22:43:40.230Z,1.50
2023-02-03T22:46:07.537Z,1.88
2023-02-03T22:48:34.753Z,1.80
2023-02-03T22:51:01.757Z,1.85
2023-02-03T22:53:29.404Z,2.05
2023-02-03T22:55:56.266Z,1.60
2023-02-03T22:58:23.054Z,2.55
2023-02-03T23:00:49.814Z,2.13
2023-02-03T23:03:16.688Z,1.55
2023-02-03T23:05:43.532Z,1.58
2023-02-03T23:08:10.446Z,1.60
2023-02-03T23:10:37.325Z,1.70
2023-02-03T23:13:04.262Z,2.17
2023-02-03T23:15:31.106Z,1.73
2023-02-03T23:17:58.456Z,2.13
2023-02-03T23:20:25.388Z,2.05
2023-02-03T23:22:52.429Z,2.15
2023-02-03T23:25:19.221Z,2.13
2023-02-03T23:27:46.220Z,2.20
2023-02-03T23:30:13.962Z,2.33
2023-02-03T23:32:40.835Z,1.88
2023-02-03T23:35:27.034Z,2.10
2023-02-03T23:37:53.948Z,2.05
2023-02-03T23:40:20.951Z,2.45
2023-02-03T23:42:47.721Z,2.03
2023-02-03T23:45:14.552Z,2.10
2023-02-03T23:47:43.264Z,1.63
2023-02-03T23:50:14.462Z,1.77
2023-02-03T23:52:41.369Z,1.65
2023-02-03T23:55:12.043Z,2.00
2023-02-03T23:57:39.156Z,1.60
